createdAt,value
2023-08-27T00:02:39.572Z,100978.13
2023-08-27T00:07:42.435Z,100974.50
2023-08-27T00:12:45.378Z,100983.31
2023-08-27T00:17:49.756Z,100969.13
2023-08-27T00:22:54.678Z,100970.84
2023-08-27T00:27:57.820Z,100956.69
2023-08-27T00:33:02.587Z,100941.53
2023-08-27T00:38:07.037Z,100944.19
2023-08-27T00:43:10.439Z,100930.00
2023-08-27T00:48:15.013Z,100921.16
2023-08-27T00:53:19.460Z,100901.72
2023-08-27T00:58:23.149Z,100912.38
2023-08-27T01:03:27.881Z,100921.19
2023-08-27T01:08:39.594Z,100923.78
2023-08-27T01:13:48.613Z,100906.06
2023-08-27T01:18:54.572Z,100899.00
2023-08-27T01:23:58.876Z,100892.81
2023-08-27T01:29:07.801Z,100877.72
2023-08-27T01:34:14.401Z,100882.16
2023-08-27T01:39:18.803Z,100883.91
2023-08-27T01:44:21.960Z,100876.00
2023-08-27T01:49:25.013Z,100872.47
2023-08-27T01:54:29.436Z,100865.41
2023-08-27T01:59:32.609Z,100868.03
2023-08-27T02:04:35.744Z,100863.66
2023-08-27T02:09:40.202Z,100857.47
2023-08-27T02:14:44.569Z,100874.22
2023-08-27T02:19:47.653Z,100876.88
2023-08-27T02:24:58.534Z,100880.44
2023-08-27T02:30:01.679Z,100889.28
2023-08-27T02:35:06.256Z,100893.69
2023-08-27T02:40:11.675Z,100887.22
2023-08-27T02:45:14.893Z,100887.06
2023-08-27T02:50:18.059Z,100885.22
2023-08-27T02:55:22.605Z,100886.94
2023-08-27T03:00:25.930Z,100893.13
2023-08-27T03:05:29.135Z,100895.72
2023-08-27T03:10:33.846Z,100900.09
2023-08-27T03:15:36.966Z,100888.63
2023-08-27T03:20:40.003Z,100885.16
2023-08-27T03:25:44.423Z,100880.88
2023-08-27T03:30:47.598Z,100878.16
2023-08-27T03:35:56.469Z,100869.28
2023-08-27T03:41:04.132Z,100877.22
2023-08-27T03:46:07.491Z,100880.75
2023-08-27T03:51:10.700Z,100874.56
2023-08-27T03:56:20.983Z,100876.28
2023-08-27T04:01:24.435Z,100872.75
2023-08-27T04:06:41.998Z,100873.59
2023-08-27T04:11:50.755Z,100870.00
2023-08-27T04:16:56.651Z,100872.72
2023-08-27T04:22:04.501Z,100859.59
2023-08-27T04:27:09.485Z,100868.59
2023-08-27T04:32:18.361Z,100868.59
2023-08-27T04:37:21.465Z,100863.31
2023-08-27T04:42:25.956Z,100872.13
2023-08-27T04:47:29.004Z,100880.09
2023-08-27T04:52:32.999Z,100877.38
2023-08-27T04:57:38.389Z,100876.66
2023-08-27T05:02:41.706Z,100879.38
2023-08-27T05:07:45.143Z,100875.81
2023-08-27T05:12:49.607Z,100872.25
2023-08-27T05:17:55.107Z,100870.53
2023-08-27T05:22:59.603Z,100881.22
2023-08-27T05:28:05.571Z,100887.41
2023-08-27T05:33:09.097Z,100878.56
2023-08-27T05:38:12.283Z,100886.53
2023-08-27T05:43:16.829Z,100883.66
2023-08-27T05:48:19.945Z,100885.38
2023-08-27T05:53:23.433Z,100880.41
2023-08-27T05:58:28.346Z,100875.41
2023-08-27T06:03:31.807Z,100872.78
2023-08-27T06:08:35.003Z,100866.50
2023-08-27T06:13:39.760Z,100864.72
2023-08-27T06:18:42.865Z,100859.41
2023-08-27T06:23:46.107Z,100856.81
2023-08-27T06:28:50.584Z,100856.03
2023-08-27T06:34:18.791Z,100837.50
2023-08-27T06:39:21.888Z,100843.69
2023-08-27T06:44:29.491Z,100844.59
2023-08-27T06:49:34.460Z,100842.00
2023-08-27T06:54:40.923Z,100840.25
2023-08-27T06:59:45.659Z,100848.38
2023-08-27T07:04:51.356Z,100846.91
2023-08-27T07:09:54.591Z,100857.81
2023-08-27T07:15:01.974Z,100847.44
2023-08-27T07:20:08.733Z,100845.81
2023-08-27T07:25:16.494Z,100855.78
2023-08-27T07:30:22.701Z,100869.22
2023-08-27T07:35:27.254Z,100856.00
2023-08-27T07:40:36.385Z,100848.84
2023-08-27T07:45:44.047Z,100868.50
2023-08-27T07:50:47.282Z,100864.31
2023-08-27T07:55:51.162Z,100851.06
2023-08-27T08:01:01.188Z,100842.53
2023-08-27T08:06:05.249Z,100842.69
2023-08-27T08:11:08.548Z,100840.09
2023-08-27T08:16:13.412Z,100826.81
2023-08-27T08:21:16.521Z,100824.22
2023-08-27T08:26:19.545Z,100830.44
2023-08-27T08:31:24.196Z,100834.03
2023-08-27T08:36:27.299Z,100827.78
2023-08-27T08:41:30.440Z,100837.47
2023-08-27T08:46:38.083Z,100838.44
2023-08-27T08:51:41.390Z,100848.13
2023-08-27T08:56:51.010Z,100852.09
2023-08-27T09:01:55.636Z,100851.16
2023-08-27T09:06:59.708Z,100845.16
2023-08-27T09:12:03.734Z,100845.38
2023-08-27T09:17:14.585Z,100829.53
2023-08-27T09:22:18.016Z,100829.56
2023-08-27T09:27:21.873Z,100814.47
2023-08-27T09:32:26.401Z,100832.22
2023-08-27T09:37:30.124Z,100818.00
2023-08-27T09:42:34.040Z,100830.47
2023-08-27T09:53:14.053Z,100800.91
2023-08-27T09:58:17.271Z,100828.63
2023-08-27T10:03:25.067Z,100841.09
2023-08-27T10:08:28.437Z,100860.13
2023-08-27T10:13:31.924Z,100886.69
2023-08-27T11:57:58.274Z,100910.50
2023-08-27T12:03:02.145Z,100917.25
2023-08-27T12:08:08.030Z,100916.25
2023-08-27T12:13:12.465Z,100916.56
2023-08-27T12:18:15.537Z,100893.06
2023-08-27T12:23:18.827Z,100897.00
2023-08-27T12:28:24.063Z,100883.00
2023-08-27T12:33:38.591Z,100891.94
2023-08-27T12:38:41.763Z,100913.38
2023-08-27T12:43:46.246Z,100916.22
2023-08-27T12:48:49.987Z,100898.59
2023-08-27T12:53:53.186Z,100880.97
2023-08-27T12:58:57.666Z,100889.00
2023-08-27T13:04:01.321Z,100883.75
2023-08-27T13:09:05.412Z,100903.22
2023-08-27T13:14:09.985Z,100907.59
2023-08-27T13:19:13.205Z,100900.50
2023-08-27T13:24:18.219Z,100910.28
2023-08-27T13:29:22.932Z,100908.53
2023-08-27T13:34:26.552Z,100900.44
2023-08-27T13:39:31.305Z,100919.22
2023-08-27T13:44:36.081Z,100909.50
2023-08-27T13:49:39.263Z,100905.91
2023-08-27T13:54:42.469Z,100901.50
2023-08-27T13:59:47.005Z,100924.50
2023-08-27T14:04:50.211Z,100932.88
2023-08-27T14:09:53.322Z,100928.03
2023-08-27T14:14:57.716Z,100928.19
2023-08-27T14:20:01.019Z,100932.94
2023-08-27T14:25:04.932Z,100912.38
2023-08-27T14:30:10.612Z,100924.16
2023-08-27T14:35:15.533Z,100921.75
2023-08-27T14:40:18.564Z,100935.16
2023-08-27T14:45:23.180Z,100948.44
2023-08-27T14:50:26.375Z,100949.25
2023-08-27T14:55:31.173Z,100959.31
2023-08-27T15:00:35.850Z,100973.69
2023-08-27T15:05:39.115Z,100948.91
2023-08-27T15:10:42.219Z,100953.41
2023-08-27T15:15:46.709Z,100956.88
2023-08-27T15:20:49.842Z,100954.41
2023-08-27T15:25:53.025Z,100948.00
2023-08-27T15:30:57.579Z,100947.44
2023-08-27T15:36:01.163Z,100960.25
2023-08-27T15:41:04.543Z,100966.50
2023-08-27T15:46:09.278Z,100962.22
2023-08-27T15:51:12.362Z,100956.25
2023-08-27T15:56:15.470Z,100967.59
2023-08-27T16:01:23.381Z,100945.53
2023-08-27T16:06:26.543Z,100949.25
2023-08-27T16:11:29.565Z,100945.00
2023-08-27T16:16:34.425Z,100955.66
2023-08-27T16:21:37.529Z,100956.69
2023-08-27T16:26:40.751Z,100963.97
2023-08-27T16:31:45.309Z,100969.56
2023-08-27T16:36:48.442Z,100973.97
2023-08-27T16:41:51.504Z,100976.66
2023-08-27T16:46:56.781Z,100978.41
2023-08-27T16:51:59.779Z,100980.28
2023-08-27T16:57:02.819Z,100987.34
2023-08-27T17:02:08.940Z,100987.41
2023-08-27T17:07:12.145Z,100997.09
2023-08-27T17:12:15.232Z,100994.53
2023-08-27T17:17:19.719Z,101009.56
2023-08-27T17:22:24.301Z,101000.69
2023-08-27T17:27:27.487Z,101017.56
2023-08-27T17:32:37.838Z,101027.31
2023-08-27T17:37:41.182Z,101023.75
2023-08-27T17:42:44.293Z,101030.81
2023-08-27T17:48:05.981Z,101028.94
2023-08-27T17:53:11.937Z,101026.09
2023-08-27T17:58:15.044Z,101041.06
2023-08-27T18:03:19.687Z,101047.19
2023-08-27T18:08:22.940Z,101040.84
2023-08-27T18:13:26.358Z,101038.13
2023-08-27T18:18:31.743Z,101049.63
2023-08-27T18:23:34.941Z,101056.66
2023-08-27T18:28:42.041Z,101062.84
2023-08-27T18:33:47.079Z,101062.75
2023-08-27T18:38:50.740Z,101067.09
2023-08-27T18:43:53.907Z,101067.94
2023-08-27T18:48:58.350Z,101074.94
2023-08-27T18:54:01.810Z,101076.59
2023-08-27T18:59:04.947Z,101072.09
2023-08-27T19:04:12.624Z,101067.56
2023-08-27T19:09:18.195Z,101071.94
2023-08-27T19:14:21.481Z,101087.78
2023-08-27T19:19:27.766Z,101093.75
2023-08-27T19:24:31.556Z,101093.66
2023-08-27T19:29:34.797Z,101090.97
2023-08-27T19:34:39.429Z,101095.31
2023-08-27T19:39:42.629Z,101095.31
2023-08-27T19:44:45.711Z,101103.28
2023-08-27T19:49:50.256Z,101090.91
2023-08-27T19:54:54.969Z,101086.47
2023-08-27T19:59:58.742Z,101102.34
2023-08-27T20:05:03.850Z,101106.53
2023-08-27T20:10:07.899Z,101121.50
2023-08-27T20:15:11.957Z,101118.69
2023-08-27T20:20:16.858Z,101123.84
2023-08-27T20:25:20.197Z,101129.91
2023-08-27T20:30:23.679Z,101132.41
2023-08-27T20:35:28.398Z,101125.16
2023-08-27T20:40:31.695Z,101142.81
2023-08-27T20:45:36.258Z,101139.19
2023-08-27T20:50:41.104Z,101145.34
2023-08-27T20:55:44.243Z,101146.19
2023-08-27T21:00:49.253Z,101141.69
2023-08-27T21:05:54.162Z,101149.53
2023-08-27T21:10:58.030Z,101160.97
2023-08-27T21:16:01.157Z,101167.97
2023-08-27T21:21:05.912Z,101166.97
2023-08-27T21:26:08.888Z,101177.47
2023-08-27T21:31:31.736Z,101173.69
2023-08-27T21:36:36.500Z,101183.31
2023-08-27T21:41:40.031Z,101183.19
2023-08-27T21:46:43.212Z,101191.25
2023-08-27T21:51:47.568Z,101200.81
2023-08-27T21:56:50.625Z,101190.97
2023-08-27T22:01:53.856Z,101197.00
2023-08-27T22:06:58.424Z,101201.31
2023-08-27T22:12:02.342Z,101204.75
2023-08-27T22:17:07.545Z,101204.72
2023-08-27T22:22:12.398Z,101200.13
2023-08-27T22:27:15.943Z,101201.88
2023-08-27T22:32:19.125Z,101194.78
2023-08-27T22:37:23.670Z,101193.94
2023-08-27T22:42:26.802Z,101190.34
2023-08-27T22:47:30.448Z,101186.06
2023-08-27T22:52:35.081Z,101181.53
2023-08-27T22:57:54.106Z,101188.66
2023-08-27T23:02:57.505Z,101184.16
2023-08-27T23:08:02.260Z,101183.19
2023-08-27T23:13:06.207Z,101174.28
2023-08-27T23:18:10.450Z,101168.97
2023-08-27T23:23:15.291Z,101165.41
2023-08-27T23:28:18.920Z,101170.78
2023-08-27T23:33:22.134Z,101169.88
2023-08-27T23:38:26.912Z,101168.13
2023-08-27T23:43:30.194Z,101172.47
2023-08-27T23:48:33.241Z,101185.66
2023-08-27T23:53:37.721Z,101174.91
2023-08-27T23:58:43.108Z,101179.22
